TimeEDT,TemperatureF,Dew PointF,Humidity,Sea Level PressureIn,VisibilityMPH,Wind Direction,Wind SpeedMPH,Gust SpeedMPH,PrecipitationIn,Events,Conditions,WindDirDegrees,DateUTC
12:15 AM,73.6,70.9,91,29.77,10.0,Calm,Calm,-,N/A,,Clear,0,2013-06-27 04:15:00
12:34 AM,73.4,70.7,91,29.77,10.0,SSE,3.5,-,N/A,,Clear,150,2013-06-27 04:34:00
12:55 AM,72.9,70.2,91,29.76,10.0,Calm,Calm,-,N/A,,Clear,0,2013-06-27 04:55:00
1:15 AM,72.9,70.0,91,29.76,10.0,Calm,Calm,-,N/A,,Clear,0,2013-06-27 05:15:00
1:34 AM,71.8,70.3,95,29.75,10.0,East,3.5,-,N/A,,Clear,80,2013-06-27 05:34:00
1:55 AM,72.0,70.0,93,29.75,10.0,SE,3.5,-,N/A,,Clear,140,2013-06-27 05:55:00
2:15 AM,72.5,69.4,90,29.75,10.0,SE,3.5,-,N/A,,Clear,140,2013-06-27 06:15:00
2:35 AM,72.7,69.6,90,29.75,10.0,Calm,Calm,-,N/A,,Scattered Clouds,0,2013-06-27 06:35:00
2:55 AM,72.5,70.0,92,29.74,10.0,Calm,Calm,-,N/A,,Light Drizzle,0,2013-06-27 06:55:00
3:15 AM,72.1,70.3,94,29.75,10.0,NW,3.5,-,N/A,,Clear,310,2013-06-27 07:15:00
3:35 AM,72.3,70.2,93,29.76,10.0,Calm,Calm,-,N/A,,Clear,0,2013-06-27 07:35:00
3:55 AM,70.7,69.8,97,29.75,10.0,Calm,Calm,-,N/A,,Clear,0,2013-06-27 07:55:00
4:15 AM,70.2,69.6,98,29.75,10.0,Calm,Calm,-,N/A,,Clear,0,2013-06-27 08:15:00
4:35 AM,69.6,69.4,99,29.75,10.0,Calm,Calm,-,N/A,,Clear,0,2013-06-27 08:35:00
4:54 AM,69.8,69.8,100,29.75,10.0,Calm,Calm,-,N/A,,Clear,0,2013-06-27 08:54:00
5:15 AM,69.3,69.3,100,29.76,7.0,Calm,Calm,-,N/A,,Scattered Clouds,0,2013-06-27 09:15:00
5:35 AM,68.9,68.9,100,29.75,7.0,Calm,Calm,-,N/A,,Scattered Clouds,0,2013-06-27 09:35:00
5:55 AM,68.9,68.9,100,29.76,5.0,Calm,Calm,-,N/A,,Clear,0,2013-06-27 09:55:00
6:15 AM,68.5,68.5,100,29.76,2.5,Calm,Calm,-,N/A,,Clear,0,2013-06-27 10:15:00
6:35 AM,68.4,68.4,100,29.76,5.0,Calm,Calm,-,N/A,,Clear,0,2013-06-27 10:35:00
6:55 AM,68.9,68.9,100,29.76,7.0,Calm,Calm,-,N/A,,Clear,0,2013-06-27 10:55:00
7:15 AM,68.2,68.2,100,29.76,5.0,Calm,Calm,-,N/A,,Clear,0,2013-06-27 11:15:00
7:35 AM,68.9,68.9,100,29.76,4.0,Calm,Calm,-,N/A,,Clear,0,2013-06-27 11:35:00
7:55 AM,70.5,70.5,100,29.75,7.0,Calm,Calm,-,N/A,,Clear,0,2013-06-27 11:55:00
8:15 AM,72.1,72.0,99,29.75,10.0,Calm,Calm,-,N/A,,Clear,0,2013-06-27 12:15:00
8:35 AM,74.3,71.4,91,29.75,10.0,Calm,Calm,-,N/A,,Clear,0,2013-06-27 12:35:00
8:55 AM,75.9,70.9,84,29.75,10.0,Calm,Calm,-,N/A,,Clear,0,2013-06-27 12:55:00
9:14 AM,76.8,70.2,80,29.75,10.0,Calm,Calm,-,N/A,,Clear,0,2013-06-27 13:14:00
9:35 AM,78.4,70.3,76,29.75,10.0,Calm,Calm,-,N/A,,Clear,0,2013-06-27 13:35:00
9:55 AM,79.0,70.7,76,29.74,10.0,Calm,Calm,-,N/A,,Clear,0,2013-06-27 13:55:00
10:14 AM,79.7,70.0,72,29.74,10.0,Calm,Calm,-,N/A,,Clear,0,2013-06-27 14:14:00
10:35 AM,79.5,70.9,75,29.74,10.0,Calm,Calm,-,N/A,,Scattered Clouds,0,2013-06-27 14:35:00
10:55 AM,80.4,71.4,74,29.74,10.0,SE,3.5,-,N/A,,Scattered Clouds,140,2013-06-27 14:55:00
11:14 AM,82.2,71.4,70,29.74,10.0,WNW,3.5,-,N/A,,Mostly Cloudy,290,2013-06-27 15:14:00
11:35 AM,82.6,70.9,68,29.74,10.0,West,3.5,-,N/A,,Mostly Cloudy,260,2013-06-27 15:35:00
11:55 AM,81.5,70.3,69,29.74,10.0,Calm,Calm,-,N/A,,Mostly Cloudy,0,2013-06-27 15:55:00
12:15 PM,82.2,70.5,68,29.74,10.0,Calm,Calm,-,N/A,,Mostly Cloudy,0,2013-06-27 16:15:00
12:35 PM,81.7,70.2,68,29.73,10.0,Calm,Calm,-,N/A,,Mostly Cloudy,0,2013-06-27 16:35:00
12:55 PM,83.3,70.7,66,29.72,10.0,Calm,Calm,-,N/A,,Mostly Cloudy,0,2013-06-27 16:55:00
1:15 PM,84.7,69.8,61,29.71,10.0,Calm,Calm,-,N/A,,Scattered Clouds,0,2013-06-27 17:15:00
1:35 PM,85.6,71.1,62,29.70,10.0,SSW,8.1,-,N/A,,Scattered Clouds,200,2013-06-27 17:35:00
1:54 PM,86.7,71.6,61,29.69,10.0,WSW,9.2,-,N/A,,Scattered Clouds,240,2013-06-27 17:54:00
2:15 PM,84.7,68.0,57,29.68,10.0,WSW,8.1,-,N/A,,Scattered Clouds,240,2013-06-27 18:15:00
2:35 PM,83.5,69.3,62,29.69,10.0,WSW,6.9,-,N/A,,Mostly Cloudy,250,2013-06-27 18:35:00
2:54 PM,84.4,69.6,61,29.68,10.0,WSW,8.1,-,N/A,,Scattered Clouds,240,2013-06-27 18:54:00
3:15 PM,82.4,71.2,69,29.67,10.0,West,4.6,-,N/A,Rain,Light Rain,280,2013-06-27 19:15:00
3:35 PM,75.0,67.5,77,29.67,5.0,North,12.7,24.2,N/A,Rain,Light Rain,350,2013-06-27 19:35:00
3:55 PM,72.7,66.6,81,29.68,10.0,North,12.7,21.9,N/A,Rain,Light Rain,10,2013-06-27 19:55:00
4:14 PM,68.9,67.6,96,29.70,2.0,North,19.6,28.8,N/A,Rain,Heavy Rain,360,2013-06-27 20:14:00
4:35 PM,70.0,69.1,97,29.70,2.5,North,8.1,-,N/A,Rain,Heavy Rain,360,2013-06-27 20:35:00
4:55 PM,70.0,69.3,98,29.71,10.0,NE,12.7,19.6,N/A,Rain,Light Rain,50,2013-06-27 20:55:00
5:14 PM,68.9,68.4,98,29.73,10.0,East,8.1,-,N/A,,Overcast,80,2013-06-27 21:14:00
5:35 PM,68.5,68.2,99,29.71,10.0,East,8.1,-,N/A,,Overcast,90,2013-06-27 21:35:00
5:55 PM,68.9,68.7,99,29.71,10.0,East,8.1,-,N/A,Rain,Light Rain,100,2013-06-27 21:55:00
6:14 PM,69.8,69.3,98,29.73,10.0,ESE,5.8,-,N/A,,Overcast,110,2013-06-27 22:14:00
6:35 PM,69.8,68.9,97,29.71,10.0,ESE,10.4,-,N/A,,Overcast,110,2013-06-27 22:35:00
6:55 PM,69.8,68.9,97,29.71,10.0,SSE,10.4,-,N/A,,Mostly Cloudy,160,2013-06-27 22:55:00
7:15 PM,70.0,68.9,96,29.70,10.0,SE,5.8,-,N/A,,Mostly Cloudy,130,2013-06-27 23:15:00
7:35 PM,69.8,68.5,96,29.72,10.0,Calm,Calm,-,N/A,,Mostly Cloudy,0,2013-06-27 23:35:00
7:54 PM,69.4,68.0,95,29.73,10.0,Calm,Calm,-,N/A,,Overcast,0,2013-06-27 23:54:00
8:15 PM,69.4,68.4,96,29.73,10.0,North,4.6,-,N/A,Rain,Light Rain,10,2013-06-28 00:15:00
8:35 PM,69.8,68.7,96,29.73,10.0,Calm,Calm,-,N/A,Rain,Light Rain,0,2013-06-28 00:35:00
8:54 PM,69.3,68.9,99,29.71,5.0,Calm,Calm,-,N/A,Rain,Light Rain,0,2013-06-28 00:54:00
9:15 PM,68.9,68.5,99,29.70,10.0,South,3.5,-,N/A,Rain,Light Rain,180,2013-06-28 01:15:00
9:35 PM,68.9,68.7,99,29.69,10.0,West,4.6,-,N/A,Rain,Rain,260,2013-06-28 01:35:00
9:54 PM,68.2,68.2,100,29.68,10.0,SSW,4.6,-,N/A,Rain,Light Rain,210,2013-06-28 01:54:00
10:15 PM,68.0,68.0,100,29.67,10.0,SSW,4.6,-,N/A,,Mostly Cloudy,210,2013-06-28 02:15:00
10:35 PM,67.6,67.6,100,29.67,10.0,SW,4.6,-,N/A,,Mostly Cloudy,230,2013-06-28 02:35:00
10:54 PM,67.8,67.8,100,29.67,10.0,West,4.6,-,N/A,,Overcast,260,2013-06-28 02:54:00
11:15 PM,67.3,67.3,100,29.66,10.0,WSW,4.6,-,N/A,,Mostly Cloudy,240,2013-06-28 03:15:00
11:35 PM,67.3,67.3,100,29.65,10.0,West,4.6,-,N/A,,Mostly Cloudy,260,2013-06-28 03:35:00
11:55 PM,68.0,68.0,100,29.66,10.0,West,5.8,-,N/A,,Overcast,280,2013-06-28 03:55:00